πŸ“Š DonnΓ©es MΓ©tΓ©o - Bordeaux

Total mesures

14,358

TempΓ©rature moyenne

18.8Β°C

Temp. Min/Max

2.9Β° / 42.4Β°

HumiditΓ© moyenne

64.9%

Pression moyenne

1014.7 hPa
enregistrements
ID Date/Heure Temp (Β°C) HumiditΓ© (%) Pression (hPa) Tendance LuminositΓ© (lux) Situation
12958 15/08/2026 16:15 33.2 42.0 1,010.7 β†’ Stable 50,556 conditions-neutrales-ou-non-definies
12957 15/08/2026 15:45 33.2 43.0 1,011.2 β†’ Stable 63,060 conditions-neutrales-ou-non-definies
12956 15/08/2026 15:15 33.4 42.0 1,011.2 β†’ Stable 67,032 conditions-neutrales-ou-non-definies
12955 15/08/2026 14:45 33.0 44.0 1,012.1 β†’ Stable 80,460 confortablement-chaud (approx.)
12954 15/08/2026 14:15 33.0 44.0 1,012.1 β†’ Stable 87,312 confortablement-chaud (approx.)
12953 15/08/2026 13:45 32.5 46.0 1,012.8 β†’ Stable 92,220 confortablement-chaud (approx.)
12952 15/08/2026 13:15 32.2 45.0 1,012.9 β†’ Stable 72,588 confortablement-chaud (approx.)
12951 15/08/2026 12:45 31.9 47.0 1,013.6 β†’ Stable 91,944 confortablement-chaud (approx.)
12950 15/08/2026 12:15 31.2 50.0 1,013.6 β†’ Stable 98,892 confortablement-chaud (approx.)
12949 15/08/2026 11:45 30.1 54.0 1,013.9 β†’ Stable 96,756 confortablement-chaud (approx.)
12948 15/08/2026 11:15 29.3 58.0 1,013.9 β†’ Stable 96,204 confortablement-chaud (approx.)
12947 15/08/2026 10:45 28.3 63.0 1,014.6 β†’ Stable 87,036 confortablement-chaud
12946 15/08/2026 10:15 27.6 64.0 1,014.6 β†’ Stable 77,688 confortablement-chaud
12945 15/08/2026 09:45 26.7 68.0 1,014.9 β†’ Stable 72,960 confortablement-chaud
12944 15/08/2026 09:15 25.9 71.0 1,014.9 β†’ Stable 71,388 confortablement-chaud (approx.)
12943 15/08/2026 08:45 25.0 75.0 1,014.5 β†’ Stable 40,920 pluvieux-gris (approx.)
12942 15/08/2026 08:15 24.9 74.0 1,014.5 β†’ Stable 41,112 pluvieux-gris (approx.)
12941 15/08/2026 07:45 24.1 81.0 1,014.5 β†’ Stable 32,868 pluvieux-gris (approx.)
12940 15/08/2026 07:15 23.5 84.0 1,014.5 β†’ Stable 26,016 pluvieux-gris (approx.)
12939 15/08/2026 06:45 23.2 87.0 1,014.1 β†’ Stable 17,688 pluvieux-gris (approx.)
12938 15/08/2026 06:15 22.7 89.0 1,014.1 β†’ Stable 10,920 pluvieux-gris (approx.)
12937 15/08/2026 05:45 22.7 91.0 1,013.6 β†’ Stable 2,688 pluvieux-gris (approx.)
12936 15/08/2026 05:15 22.5 94.0 1,013.6 β†’ Stable 0 pluvieux-gris (approx.)
12935 15/08/2026 04:45 22.4 94.0 1,013.0 β†’ Stable 0 pluvieux-gris (approx.)
12934 15/08/2026 04:15 22.2 93.0 1,013.0 β†’ Stable 0 pluvieux-gris (approx.)
12933 15/08/2026 03:45 22.3 96.0 1,012.3 β†’ Stable 0 pluvieux-gris (approx.)
12932 15/08/2026 03:15 22.7 94.0 1,012.3 β†’ Stable 0 pluvieux-gris (approx.)
12931 15/08/2026 02:45 22.7 95.0 1,012.1 β†’ Stable 0 pluvieux-gris (approx.)
12930 15/08/2026 02:15 23.2 85.0 1,012.1 β†’ Stable 0 pluvieux-gris (approx.)
12929 15/08/2026 01:45 23.5 86.0 1,013.7 β†’ Stable 0 pluvieux-gris (approx.)
12928 15/08/2026 01:15 22.6 94.0 1,014.3 β†’ Stable 0 pluvieux-gris (approx.)
12927 15/08/2026 00:45 23.5 87.0 1,014.6 β†’ Stable 0 pluvieux-gris (approx.)
12926 15/08/2026 00:15 23.6 89.0 1,014.6 β†’ Stable 0 pluvieux-gris (approx.)
12925 14/08/2026 23:45 23.9 85.0 1,015.0 β†’ Stable 0 pluvieux-gris (approx.)
12924 14/08/2026 23:15 24.4 83.0 1,015.0 β†’ Stable 0 pluvieux-gris (approx.)
12923 14/08/2026 22:45 24.3 85.0 1,014.3 β†’ Stable 0 pluvieux-gris (approx.)
12922 14/08/2026 22:15 24.2 82.0 1,014.3 β†’ Stable 0 pluvieux-gris (approx.)
12921 14/08/2026 21:45 24.4 80.0 1,013.9 β†’ Stable 0 pluvieux-gris (approx.)
12920 14/08/2026 21:15 24.5 80.0 1,013.9 β†’ Stable 0 pluvieux-gris (approx.)
12919 14/08/2026 20:45 24.7 79.0 1,013.2 β†’ Stable 0 pluvieux-gris (approx.)
12918 14/08/2026 20:15 25.1 76.0 1,013.2 β†’ Stable 0 pluvieux-gris (approx.)
12917 14/08/2026 19:45 25.6 73.0 1,012.1 β†’ Stable 0 pluvieux-gris (approx.)
12916 14/08/2026 19:15 26.4 70.0 1,012.1 β†’ Stable 0 pluvieux-gris (approx.)
12915 14/08/2026 18:45 27.9 67.0 1,011.0 β†’ Stable 4,728 confortablement-chaud (approx.)
12914 14/08/2026 18:15 30.8 56.0 1,011.0 β†’ Stable 14,352 conditions-neutrales-ou-non-definies
12913 14/08/2026 17:45 33.4 47.0 1,010.9 β†’ Stable 23,700 conditions-neutrales-ou-non-definies
12912 14/08/2026 17:15 36.2 34.0 1,010.9 β†’ Stable 32,040 chaleur-seche
12911 14/08/2026 16:45 36.5 34.0 1,011.5 β†’ Stable 43,704 chaleur-seche
12910 14/08/2026 16:15 36.7 33.0 1,011.2 β†’ Stable 52,128 chaleur-seche
12909 14/08/2026 15:45 36.3 36.0 1,012.2 β†’ Stable 56,388 chaleur-seche
12908 14/08/2026 15:15 35.6 38.0 1,012.2 β†’ Stable 63,420 chaleur-seche
12907 14/08/2026 14:45 35.3 39.0 1,012.5 β†’ Stable 80,736 chaleur-seche
12906 14/08/2026 14:15 37.6 32.0 1,012.5 β†’ Stable 86,112 chaleur-seche
12905 14/08/2026 13:45 37.5 31.0 1,013.3 β†’ Stable 94,164 chaleur-seche
12904 14/08/2026 13:15 37.2 32.0 1,013.2 β†’ Stable 96,384 chaleur-seche
12903 14/08/2026 12:45 36.7 34.0 1,014.0 β†’ Stable 100,464 chaleur-seche
12902 14/08/2026 12:15 35.8 38.0 1,014.0 β†’ Stable 100,836 chaleur-seche
12901 14/08/2026 11:45 34.9 41.0 1,014.6 β†’ Stable 100,560 confortablement-chaud (approx.)
12900 14/08/2026 11:15 34.2 43.0 1,014.5 β†’ Stable 98,328 confortablement-chaud (approx.)
12899 14/08/2026 10:45 33.1 47.0 1,014.9 β†’ Stable 94,164 confortablement-chaud (approx.)
12898 14/08/2026 10:15 32.3 49.0 1,014.9 β†’ Stable 89,076 confortablement-chaud (approx.)
12897 14/08/2026 09:45 31.1 54.0 1,015.4 β†’ Stable 81,672 confortablement-chaud (approx.)
12896 14/08/2026 09:15 29.9 59.0 1,015.4 β†’ Stable 74,256 confortablement-chaud (approx.)
12895 14/08/2026 08:45 28.5 65.0 1,015.5 β†’ Stable 63,060 confortablement-chaud (approx.)
12894 14/08/2026 08:15 27.3 70.0 1,015.5 β†’ Stable 52,404 pluvieux-gris (approx.)
12893 14/08/2026 07:45 26.4 73.0 1,015.7 β†’ Stable 43,524 pluvieux-gris (approx.)
12892 14/08/2026 07:15 25.4 78.0 1,015.7 β†’ Stable 33,708 pluvieux-gris (approx.)
12891 14/08/2026 06:45 24.6 83.0 1,015.7 β†’ Stable 22,968 pluvieux-gris (approx.)
12890 14/08/2026 06:15 24.0 86.0 1,015.7 β†’ Stable 13,236 pluvieux-gris (approx.)
12889 14/08/2026 05:45 23.6 89.0 1,015.7 β†’ Stable 5,088 pluvieux-gris (approx.)
12888 14/08/2026 05:15 23.5 88.0 1,015.5 β†’ Stable 0 pluvieux-gris (approx.)
12887 14/08/2026 04:45 23.5 88.0 1,015.3 β†’ Stable 0 pluvieux-gris (approx.)
12886 14/08/2026 04:15 23.8 87.0 1,015.3 β†’ Stable 0 pluvieux-gris (approx.)
12885 14/08/2026 03:45 23.9 87.0 1,015.2 β†’ Stable 0 pluvieux-gris (approx.)
12884 14/08/2026 03:15 24.1 84.0 1,015.2 β†’ Stable 0 pluvieux-gris (approx.)
12883 14/08/2026 02:45 24.1 85.0 1,015.5 β†’ Stable 0 pluvieux-gris (approx.)
12882 14/08/2026 02:15 24.4 83.0 1,015.5 β†’ Stable 0 pluvieux-gris (approx.)
12881 14/08/2026 01:45 24.5 83.0 1,015.8 β†’ Stable 0 pluvieux-gris (approx.)
12880 14/08/2026 01:15 26.9 56.0 1,015.5 β†’ Stable 0 confortablement-chaud (approx.)
12879 14/08/2026 00:45 27.9 50.0 1,015.5 β†’ Stable 0 confortablement-chaud (approx.)
12878 14/08/2026 00:15 28.6 47.0 1,015.5 β†’ Stable 0 confortablement-chaud (approx.)
12877 13/08/2026 23:45 28.6 49.0 1,015.7 β†’ Stable 0 confortablement-chaud (approx.)
12876 13/08/2026 23:15 29.2 46.0 1,015.7 β†’ Stable 0 conditions-neutrales-ou-non-definies
12875 13/08/2026 22:45 29.5 45.0 1,015.3 β†’ Stable 0 conditions-neutrales-ou-non-definies
12874 13/08/2026 22:15 30.6 40.0 1,015.3 β†’ Stable 0 conditions-neutrales-ou-non-definies
12873 13/08/2026 21:45 31.0 39.0 1,015.0 β†’ Stable 0 chaleur-seche
12872 13/08/2026 21:15 32.0 36.0 1,015.0 β†’ Stable 0 chaleur-seche
12871 13/08/2026 20:45 32.8 34.0 1,014.9 β†’ Stable 0 chaleur-seche
12870 13/08/2026 20:15 33.4 34.0 1,014.9 β†’ Stable 0 chaleur-seche
12869 13/08/2026 19:45 35.1 29.0 1,014.5 β†’ Stable 0 chaleur-seche
12868 13/08/2026 19:15 35.9 28.0 1,014.5 β†’ Stable 0 chaleur-seche
12867 13/08/2026 18:45 36.8 27.0 1,014.3 β†’ Stable 5,280 chaleur-seche
12866 13/08/2026 18:15 38.2 22.0 1,014.3 β†’ Stable 15,276 chaleur-seche
12865 13/08/2026 17:45 38.7 22.0 1,014.2 β†’ Stable 24,624 chaleur-seche
12864 13/08/2026 17:15 39.6 21.0 1,014.2 β†’ Stable 33,792 chaleur-seche
12863 13/08/2026 16:45 40.5 18.0 1,014.4 β†’ Stable 45,468 chaleur-seche
12862 13/08/2026 16:15 40.7 17.0 1,014.5 β†’ Stable 41,940 chaleur-seche
12861 13/08/2026 15:45 40.8 18.0 1,015.1 β†’ Stable 65,736 chaleur-seche
12860 13/08/2026 15:15 40.6 18.0 1,015.1 β†’ Stable 74,904 chaleur-seche
12859 13/08/2026 14:45 40.4 19.0 1,015.7 β†’ Stable 83,616 chaleur-seche